createdAt,value
2018-06-13T00:02:25.240Z,100.00
2018-06-13T00:04:54.324Z,100.00
2018-06-13T00:07:25.410Z,100.00
2018-06-13T00:09:54.875Z,100.00
2018-06-13T00:12:23.983Z,100.00
2018-06-13T00:14:53.059Z,100.00
2018-06-13T00:17:22.265Z,100.00
2018-06-13T00:19:51.479Z,100.00
2018-06-13T00:22:20.687Z,100.00
2018-06-13T00:24:49.875Z,100.00
2018-06-13T00:27:19.049Z,100.00
2018-06-13T00:29:48.151Z,100.00
2018-06-13T00:32:28.519Z,100.00
2018-06-13T00:34:57.659Z,100.00
2018-06-13T00:37:31.590Z,100.00
2018-06-13T00:40:06.663Z,100.00
2018-06-13T00:42:35.815Z,100.00
2018-06-13T00:45:09.453Z,100.00
2018-06-13T00:47:38.663Z,100.00
2018-06-13T00:50:07.806Z,100.00
2018-06-13T00:52:37.080Z,100.00
2018-06-13T00:55:06.445Z,100.00
2018-06-13T00:57:35.786Z,100.00
2018-06-13T01:00:07.032Z,100.00
2018-06-13T01:02:36.203Z,100.00
2018-06-13T01:05:05.710Z,100.00
2018-06-13T01:07:34.898Z,100.00
2018-06-13T01:10:04.071Z,100.00
2018-06-13T01:12:33.334Z,100.00
2018-06-13T01:15:02.521Z,100.00
2018-06-13T01:17:31.769Z,100.00
2018-06-13T01:20:00.829Z,100.00
2018-06-13T01:22:29.977Z,100.00
2018-06-13T01:24:59.067Z,100.00
2018-06-13T01:27:28.233Z,100.00
2018-06-13T01:29:57.538Z,100.00
2018-06-13T01:32:26.735Z,100.00
2018-06-13T01:34:56.068Z,100.00
2018-06-13T01:37:25.261Z,100.00
2018-06-13T01:39:54.416Z,100.00
2018-06-13T01:44:58.561Z,100.00
2018-06-13T01:47:27.635Z,100.00
2018-06-13T01:49:56.886Z,100.00
2018-06-13T01:52:26.041Z,100.00
2018-06-13T01:54:57.431Z,100.00
2018-06-13T01:57:32.127Z,100.00
2018-06-13T02:00:01.387Z,100.00
2018-06-13T02:02:30.530Z,100.00
2018-06-13T02:04:59.759Z,100.00
2018-06-13T02:07:28.963Z,100.00
2018-06-13T02:09:58.245Z,100.00
2018-06-13T02:12:30.603Z,100.00
2018-06-13T02:14:59.833Z,100.00
2018-06-13T02:17:28.967Z,100.00
2018-06-13T02:19:58.109Z,100.00
2018-06-13T02:22:27.245Z,100.00
2018-06-13T02:24:59.411Z,100.00
2018-06-13T02:27:28.677Z,100.00
2018-06-13T02:29:57.823Z,100.00
2018-06-13T02:32:27.469Z,100.00
2018-06-13T02:34:56.905Z,100.00
2018-06-13T02:37:29.171Z,100.00
2018-06-13T02:40:06.866Z,100.00
2018-06-13T02:42:36.038Z,100.00
2018-06-13T02:45:05.191Z,100.00
2018-06-13T02:47:34.355Z,100.00
2018-06-13T02:50:03.676Z,100.00
2018-06-13T02:52:32.787Z,100.00
2018-06-13T02:55:02.156Z,100.00
2018-06-13T02:57:37.764Z,100.00
2018-06-13T03:00:06.980Z,100.00
2018-06-13T03:02:36.876Z,100.00
2018-06-13T03:05:06.020Z,100.00
2018-06-13T03:07:35.225Z,100.00
2018-06-13T03:10:04.704Z,100.00
2018-06-13T03:12:34.090Z,100.00
2018-06-13T03:15:03.201Z,100.00
2018-06-13T03:17:32.357Z,100.00
2018-06-13T03:20:01.443Z,100.00
2018-06-13T03:22:30.542Z,100.00
2018-06-13T03:24:59.699Z,100.00
2018-06-13T03:27:28.908Z,100.00
2018-06-13T03:29:59.083Z,100.00
2018-06-13T03:32:29.111Z,100.00
2018-06-13T03:34:59.238Z,100.00
2018-06-13T03:37:29.143Z,100.00
2018-06-13T03:39:59.232Z,100.00
2018-06-13T03:42:29.630Z,100.00
2018-06-13T03:45:00.015Z,100.00
2018-06-13T03:47:29.310Z,100.00
2018-06-13T03:49:59.423Z,100.00
2018-06-13T03:52:29.839Z,100.00
2018-06-13T03:54:59.395Z,100.00
2018-06-13T03:57:29.362Z,100.00
2018-06-13T04:00:00.406Z,100.00
2018-06-13T04:02:29.522Z,100.00
2018-06-13T04:04:59.516Z,100.00
2018-06-13T04:07:30.082Z,100.00
2018-06-13T04:09:59.504Z,100.00
2018-06-13T04:12:29.717Z,99.41
2018-06-13T04:14:59.605Z,99.76
2018-06-13T04:17:35.281Z,99.71
2018-06-13T04:20:04.618Z,99.17
2018-06-13T04:22:33.846Z,98.72
2018-06-13T04:25:03.015Z,99.24
2018-06-13T04:27:32.188Z,98.33
2018-06-13T04:30:01.397Z,98.81
2018-06-13T04:32:30.548Z,98.39
2018-06-13T04:35:00.262Z,98.63
2018-06-13T04:37:29.322Z,98.51
2018-06-13T04:39:58.435Z,97.97
2018-06-13T04:42:27.760Z,98.33
2018-06-13T04:44:56.948Z,98.02
2018-06-13T04:47:29.423Z,98.59
2018-06-13T04:49:58.941Z,98.55
2018-06-13T04:52:31.906Z,98.17
2018-06-13T04:55:01.044Z,98.44
2018-06-13T04:57:30.300Z,97.69
2018-06-13T05:00:00.159Z,98.08
2018-06-13T05:05:07.262Z,97.71
2018-06-13T05:07:37.312Z,98.02
2018-06-13T05:10:07.071Z,97.99
2018-06-13T05:12:36.171Z,98.90
2018-06-13T05:15:06.234Z,98.53
2018-06-13T05:17:35.457Z,99.06
2018-06-13T05:20:17.035Z,99.29
2018-06-13T05:22:46.107Z,98.73
2018-06-13T05:25:15.459Z,99.08
2018-06-13T05:27:44.538Z,100.00
2018-06-13T05:30:13.656Z,99.47
2018-06-13T05:32:42.942Z,98.97
2018-06-13T05:35:12.048Z,98.83
2018-06-13T05:37:41.258Z,99.10
2018-06-13T05:40:10.432Z,99.47
2018-06-13T05:42:40.826Z,99.16
2018-06-13T05:45:10.010Z,98.63
2018-06-13T05:47:39.107Z,97.66
2018-06-13T05:50:08.208Z,98.58
2018-06-13T05:52:37.364Z,98.62
2018-06-13T05:55:12.784Z,98.12
2018-06-13T05:57:42.340Z,98.57
2018-06-13T06:00:16.607Z,97.81
2018-06-13T06:02:45.823Z,98.87
2018-06-13T06:05:15.034Z,97.49
2018-06-13T06:07:44.136Z,97.99
2018-06-13T06:10:17.007Z,98.13
2018-06-13T06:12:46.166Z,97.56
2018-06-13T06:15:15.219Z,97.93
2018-06-13T06:17:56.353Z,97.45
2018-06-13T06:20:26.134Z,98.06
2018-06-13T06:22:55.272Z,98.60
2018-06-13T06:25:24.380Z,98.59
2018-06-13T06:27:53.549Z,97.97
2018-06-13T06:30:22.754Z,98.16
2018-06-13T06:32:51.981Z,97.71
2018-06-13T06:35:21.126Z,98.71
2018-06-13T06:37:50.300Z,98.24
2018-06-13T06:40:19.453Z,98.56
2018-06-13T06:42:48.707Z,97.85
2018-06-13T06:45:17.846Z,97.71
2018-06-13T06:47:47.024Z,97.48
2018-06-13T06:50:16.143Z,97.05
2018-06-13T06:52:45.311Z,97.92
2018-06-13T06:55:19.680Z,97.95
2018-06-13T06:57:48.703Z,97.87
2018-06-13T07:00:19.205Z,96.78
2018-06-13T07:02:48.369Z,97.27
2018-06-13T07:05:18.779Z,97.40
2018-06-13T07:07:48.027Z,96.26
2018-06-13T07:10:17.175Z,97.36
2018-06-13T07:12:46.315Z,97.58
2018-06-13T07:15:15.455Z,96.87
2018-06-13T07:17:44.591Z,96.93
2018-06-13T07:20:13.741Z,97.70
2018-06-13T07:22:42.896Z,96.92
2018-06-13T07:25:13.354Z,96.75
2018-06-13T07:27:42.781Z,96.73
2018-06-13T07:30:11.934Z,96.87
2018-06-13T07:32:45.655Z,96.73
2018-06-13T07:35:14.779Z,97.94
2018-06-13T07:37:43.943Z,97.14
2018-06-13T07:40:13.056Z,96.94
2018-06-13T07:42:42.201Z,97.94
2018-06-13T07:45:11.465Z,96.42
2018-06-13T07:47:40.603Z,96.93
2018-06-13T07:50:13.716Z,97.14
2018-06-13T07:52:42.897Z,96.73
2018-06-13T07:55:12.119Z,96.00
2018-06-13T07:57:41.292Z,96.40
2018-06-13T08:00:14.195Z,96.24
2018-06-13T08:02:43.483Z,95.95
2018-06-13T08:05:31.290Z,96.27
2018-06-13T08:08:00.488Z,97.03
2018-06-13T08:10:30.841Z,94.74
2018-06-13T08:12:59.911Z,94.89
2018-06-13T08:15:29.055Z,95.02
2018-06-13T08:17:58.161Z,95.59
2018-06-13T08:20:27.297Z,96.11
2018-06-13T08:22:56.510Z,94.74
2018-06-13T08:25:26.023Z,95.15
2018-06-13T08:27:56.050Z,95.06
2018-06-13T08:30:25.997Z,94.20
2018-06-13T08:32:56.186Z,94.46
2018-06-13T08:35:26.122Z,92.09
2018-06-13T08:37:56.423Z,93.95
2018-06-13T08:40:26.201Z,93.12
2018-06-13T08:42:56.407Z,93.33
2018-06-13T08:45:26.292Z,93.16
2018-06-13T08:47:56.415Z,92.74
2018-06-13T08:50:26.279Z,91.63
2018-06-13T08:52:56.268Z,90.69
2018-06-13T08:55:26.264Z,91.70
2018-06-13T08:57:56.398Z,91.49
2018-06-13T09:00:29.845Z,90.05
2018-06-13T09:02:59.974Z,93.07
2018-06-13T09:05:29.244Z,91.21
2018-06-13T09:08:00.125Z,90.64
2018-06-13T09:10:29.275Z,91.55
2018-06-13T09:12:58.457Z,91.27
2018-06-13T09:15:27.608Z,91.91
2018-06-13T09:17:56.762Z,91.32
2018-06-13T09:20:26.603Z,92.70
2018-06-13T09:23:05.400Z,91.83
2018-06-13T09:25:34.761Z,91.41
2018-06-13T09:28:03.885Z,91.87
2018-06-13T09:30:33.114Z,89.60
2018-06-13T09:33:02.375Z,90.48
2018-06-13T09:35:31.636Z,89.16
2018-06-13T09:38:05.770Z,90.54
2018-06-13T09:40:35.046Z,89.78
2018-06-13T09:43:04.157Z,90.15
2018-06-13T09:45:33.296Z,90.67
2018-06-13T09:48:02.388Z,89.39
2018-06-13T09:50:31.596Z,88.27
2018-06-13T09:53:15.481Z,89.28
2018-06-13T09:55:45.537Z,89.64
2018-06-13T09:58:14.614Z,89.92
2018-06-13T10:00:49.144Z,89.97
2018-06-13T10:03:19.034Z,89.38
2018-06-13T10:05:48.184Z,89.57
2018-06-13T10:08:18.840Z,89.55
2018-06-13T10:10:47.975Z,89.37
2018-06-13T10:13:17.238Z,89.54
2018-06-13T10:15:48.433Z,87.37
2018-06-13T10:18:17.685Z,87.34
2018-06-13T10:20:46.848Z,88.77
2018-06-13T10:23:15.985Z,89.35
2018-06-13T10:25:45.158Z,87.91
2018-06-13T10:28:22.370Z,87.69
2018-06-13T10:30:51.472Z,86.02
2018-06-13T10:33:20.592Z,85.99
2018-06-13T10:35:49.717Z,85.96
2018-06-13T10:38:25.286Z,87.05
2018-06-13T10:40:56.276Z,85.18
2018-06-13T10:43:25.501Z,85.63
2018-06-13T10:45:54.694Z,86.33
2018-06-13T10:48:23.949Z,86.26
2018-06-13T10:51:01.389Z,86.10
2018-06-13T10:53:30.600Z,86.26
2018-06-13T10:55:59.891Z,86.43
2018-06-13T10:58:29.136Z,85.63
2018-06-13T11:00:58.406Z,86.03
2018-06-13T11:03:27.644Z,85.65
2018-06-13T11:05:57.384Z,85.40
2018-06-13T11:08:27.601Z,86.09
2018-06-13T11:10:57.612Z,85.57
2018-06-13T11:13:33.185Z,86.55
2018-06-13T11:16:02.476Z,86.01
2018-06-13T11:18:31.716Z,85.40
2018-06-13T11:21:00.884Z,85.40
2018-06-13T11:23:30.163Z,86.44
2018-06-13T11:25:59.249Z,85.00
2018-06-13T11:28:28.452Z,85.90
2018-06-13T11:30:57.682Z,85.27
2018-06-13T11:33:27.669Z,85.17
2018-06-13T11:36:03.286Z,86.04
2018-06-13T11:38:32.408Z,86.03
2018-06-13T11:41:01.637Z,86.49
2018-06-13T11:43:30.828Z,84.85
2018-06-13T11:46:13.828Z,84.69
2018-06-13T11:48:43.055Z,85.98
2018-06-13T11:51:12.306Z,85.92
2018-06-13T11:53:41.472Z,85.30
2018-06-13T11:56:12.584Z,85.47
2018-06-13T11:58:41.893Z,84.29
2018-06-13T12:01:11.098Z,82.69
2018-06-13T12:03:40.320Z,82.24
2018-06-13T12:06:09.538Z,83.10
2018-06-13T12:08:39.758Z,82.95
2018-06-13T12:11:18.723Z,81.94
2018-06-13T12:13:47.961Z,81.45
2018-06-13T12:16:17.217Z,80.70
2018-06-13T12:18:46.441Z,80.03
2018-06-13T12:21:15.572Z,80.15
2018-06-13T12:23:44.748Z,81.21
2018-06-13T12:26:13.924Z,80.38
2018-06-13T12:28:43.717Z,81.31
2018-06-13T12:31:13.660Z,79.37
2018-06-13T12:33:42.831Z,79.16
2018-06-13T12:36:12.138Z,79.28
2018-06-13T12:38:42.214Z,79.36
2018-06-13T12:41:11.393Z,79.57
2018-06-13T12:43:43.657Z,78.03
2018-06-13T12:46:12.797Z,78.14
2018-06-13T12:48:41.931Z,80.05
2018-06-13T12:51:11.147Z,78.83
2018-06-13T12:53:40.440Z,78.19
2018-06-13T12:56:09.536Z,79.38
2018-06-13T12:58:38.713Z,78.18
2018-06-13T13:01:07.940Z,79.71
2018-06-13T13:03:37.187Z,78.95
2018-06-13T13:06:12.612Z,78.58
2018-06-13T13:08:41.713Z,77.26
2018-06-13T13:11:10.951Z,77.81
2018-06-13T13:13:40.067Z,78.21
2018-06-13T13:16:10.912Z,78.30
2018-06-13T13:18:40.124Z,79.58
2018-06-13T13:21:09.710Z,78.51
2018-06-13T13:23:38.902Z,76.56
2018-06-13T13:26:08.123Z,76.83
2018-06-13T13:28:37.288Z,78.25
2018-06-13T13:31:06.443Z,77.21
2018-06-13T13:33:35.577Z,77.35
2018-06-13T13:36:07.152Z,79.55
2018-06-13T13:38:37.547Z,78.30
2018-06-13T13:41:11.248Z,77.20
2018-06-13T13:43:40.491Z,78.53
2018-06-13T13:46:09.814Z,79.21
2018-06-13T13:48:39.088Z,78.54
2018-06-13T13:51:08.672Z,78.42
2018-06-13T13:53:37.893Z,77.76
2018-06-13T13:56:07.101Z,77.35
2018-06-13T13:58:36.229Z,80.09
2018-06-13T14:01:05.389Z,80.74
2018-06-13T14:03:34.587Z,81.17
2018-06-13T14:06:03.732Z,77.17
2018-06-13T14:08:32.906Z,76.91
2018-06-13T14:11:02.021Z,77.17
2018-06-13T14:13:31.281Z,77.65
2018-06-13T14:16:00.489Z,76.42
2018-06-13T14:18:29.749Z,77.04
2018-06-13T14:20:59.225Z,78.00
2018-06-13T14:23:29.279Z,78.00
2018-06-13T14:25:59.257Z,78.43
2018-06-13T14:28:31.407Z,77.35
2018-06-13T14:31:00.812Z,76.91
2018-06-13T14:33:30.008Z,78.56
2018-06-13T14:35:59.283Z,78.95
2018-06-13T14:38:29.376Z,78.01
2018-06-13T14:40:59.401Z,78.10
2018-06-13T14:43:29.374Z,78.00
2018-06-13T14:45:59.413Z,77.07
2018-06-13T14:48:29.600Z,77.10
2018-06-13T14:50:59.401Z,76.41
2018-06-13T14:53:29.716Z,76.31
2018-06-13T14:56:04.728Z,75.77
2018-06-13T14:58:33.993Z,77.68
2018-06-13T15:01:03.145Z,78.86
2018-06-13T15:03:32.401Z,78.80
2018-06-13T15:06:01.576Z,79.09
2018-06-13T15:08:30.753Z,79.63
2018-06-13T15:11:00.035Z,78.86
2018-06-13T15:13:29.790Z,77.79
2018-06-13T15:16:00.075Z,78.27
2018-06-13T15:18:29.772Z,78.82
2018-06-13T15:20:59.770Z,77.80
2018-06-13T15:23:29.885Z,78.81
2018-06-13T15:26:00.032Z,80.24
2018-06-13T15:28:36.633Z,80.71
2018-06-13T15:31:07.010Z,79.33
2018-06-13T15:33:36.411Z,78.95
2018-06-13T15:36:05.604Z,78.88
2018-06-13T15:38:34.841Z,80.69
2018-06-13T15:41:04.157Z,80.87
2018-06-13T15:43:33.375Z,79.63
2018-06-13T15:46:02.537Z,79.74
2018-06-13T15:48:31.776Z,80.49
2018-06-13T15:51:02.493Z,79.52
2018-06-13T15:53:39.593Z,80.26
2018-06-13T15:56:08.743Z,80.04
2018-06-13T15:58:43.487Z,79.17
2018-06-13T16:01:12.691Z,79.82
2018-06-13T16:03:41.809Z,79.17
2018-06-13T16:06:10.955Z,80.15
2018-06-13T16:08:40.381Z,78.97
2018-06-13T16:11:09.533Z,79.75
2018-06-13T16:13:38.762Z,78.69
2018-06-13T16:16:08.185Z,79.49
2018-06-13T16:18:37.427Z,78.31
2018-06-13T16:21:06.605Z,78.94
2018-06-13T16:23:35.716Z,79.15
2018-06-13T16:26:04.912Z,78.23
2018-06-13T16:28:34.204Z,78.54
2018-06-13T16:31:03.418Z,78.59
2018-06-13T16:33:32.602Z,78.80
2018-06-13T16:36:01.812Z,78.18
2018-06-13T16:38:30.908Z,78.30
2018-06-13T16:41:00.499Z,76.84
2018-06-13T16:43:30.628Z,78.58
2018-06-13T16:46:00.636Z,78.08
2018-06-13T16:48:30.647Z,77.56
2018-06-13T16:51:13.256Z,78.52
2018-06-13T16:53:57.284Z,77.34
2018-06-13T16:56:29.618Z,76.16
2018-06-13T16:58:58.725Z,77.58
2018-06-13T17:01:27.920Z,78.41
2018-06-13T17:03:57.125Z,78.23
2018-06-13T17:06:26.249Z,76.91
2018-06-13T17:08:55.479Z,78.11
2018-06-13T17:11:25.306Z,78.63
2018-06-13T17:13:55.590Z,78.26
2018-06-13T17:16:24.777Z,77.93
2018-06-13T17:18:54.317Z,78.75
2018-06-13T17:21:23.498Z,78.75
2018-06-13T17:23:52.711Z,78.03
2018-06-13T17:26:22.389Z,77.96
2018-06-13T17:28:51.508Z,77.87
2018-06-13T17:31:23.058Z,77.79
2018-06-13T17:33:52.356Z,77.53
2018-06-13T17:38:55.237Z,78.64
2018-06-13T17:41:24.302Z,77.96
2018-06-13T17:43:53.451Z,78.15
2018-06-13T17:46:24.639Z,78.39
2018-06-13T17:48:53.978Z,78.30
2018-06-13T17:51:24.088Z,77.18
2018-06-13T17:53:54.663Z,76.06
2018-06-13T17:56:27.945Z,75.03
2018-06-13T17:58:57.155Z,74.45
2018-06-13T18:01:26.416Z,74.59
2018-06-13T18:03:55.599Z,75.10
2018-06-13T18:06:24.661Z,73.96
2018-06-13T18:08:53.944Z,74.64
2018-06-13T18:11:23.130Z,75.87
2018-06-13T18:13:52.245Z,76.27
2018-06-13T18:16:21.473Z,76.66
2018-06-13T18:18:50.633Z,78.10
2018-06-13T18:21:23.573Z,77.56
2018-06-13T18:23:52.730Z,77.34
2018-06-13T18:26:21.878Z,77.60
2018-06-13T18:28:50.968Z,76.82
2018-06-13T18:31:21.069Z,77.87
2018-06-13T18:33:50.230Z,77.75
2018-06-13T18:36:19.464Z,78.60
2018-06-13T18:38:49.625Z,78.18
2018-06-13T18:41:18.856Z,78.61
2018-06-13T18:43:48.158Z,79.38
2018-06-13T18:46:19.118Z,79.61
2018-06-13T18:48:48.285Z,79.28
2018-06-13T18:51:17.659Z,80.08
2018-06-13T18:53:46.859Z,80.79
2018-06-13T18:56:16.107Z,80.28
2018-06-13T18:58:45.305Z,80.74
2018-06-13T19:01:20.953Z,81.18
2018-06-13T19:03:50.460Z,79.97
2018-06-13T19:06:19.570Z,80.45
2018-06-13T19:08:48.846Z,80.47
2018-06-13T19:11:21.330Z,80.36
2018-06-13T19:13:51.953Z,81.31
2018-06-13T19:16:21.130Z,81.09
2018-06-13T19:18:51.268Z,80.99
2018-06-13T19:21:20.853Z,81.12
2018-06-13T19:23:50.092Z,81.01
2018-06-13T19:26:19.371Z,81.27
2018-06-13T19:28:48.718Z,81.01
2018-06-13T19:31:17.897Z,81.67
2018-06-13T19:33:47.030Z,82.06
2018-06-13T19:36:17.325Z,82.12
2018-06-13T19:38:46.524Z,82.22
2018-06-13T19:41:16.309Z,82.59
2018-06-13T19:43:46.569Z,82.99
2018-06-13T19:46:19.153Z,81.93
2018-06-13T19:48:51.719Z,81.61
2018-06-13T19:51:21.152Z,82.52
2018-06-13T19:53:55.429Z,82.58
2018-06-13T19:56:29.938Z,83.35
2018-06-13T19:58:59.146Z,83.75
2018-06-13T20:01:28.378Z,83.19
2018-06-13T20:04:03.041Z,83.62
2018-06-13T20:06:32.379Z,84.22
2018-06-13T20:09:01.560Z,84.09
2018-06-13T20:11:30.801Z,84.51
2018-06-13T20:14:05.315Z,84.31
2018-06-13T20:16:51.913Z,83.98
2018-06-13T20:19:26.320Z,83.81
2018-06-13T20:21:57.637Z,83.51
2018-06-13T20:24:26.827Z,84.17
2018-06-13T20:27:01.218Z,84.02
2018-06-13T20:29:35.778Z,83.75
2018-06-13T20:32:05.013Z,84.12
2018-06-13T20:34:34.743Z,82.96
2018-06-13T20:37:03.953Z,82.36
2018-06-13T20:39:33.213Z,82.91
2018-06-13T20:42:02.409Z,82.46
2018-06-13T20:44:37.100Z,81.56
2018-06-13T20:47:07.157Z,82.85
2018-06-13T20:49:38.066Z,83.00
2018-06-13T20:52:07.288Z,81.77
2018-06-13T20:54:42.643Z,82.15
2018-06-13T20:57:15.784Z,80.35
2018-06-13T20:59:48.552Z,79.66
2018-06-13T21:02:17.735Z,80.19
2018-06-13T21:04:46.974Z,78.32
2018-06-13T21:07:16.077Z,78.65
2018-06-13T21:09:45.216Z,78.45
2018-06-13T21:12:14.641Z,78.79
2018-06-13T21:14:43.790Z,79.73
2018-06-13T21:17:12.938Z,80.69
2018-06-13T21:19:42.016Z,81.01
2018-06-13T21:22:11.155Z,81.54
2018-06-13T21:24:41.561Z,81.62
2018-06-13T21:27:10.716Z,81.56
2018-06-13T21:29:43.225Z,80.66
2018-06-13T21:32:12.388Z,79.73
2018-06-13T21:34:41.630Z,79.64
2018-06-13T21:37:10.803Z,80.70
2018-06-13T21:39:39.941Z,80.15
2018-06-13T21:42:09.178Z,80.96
2018-06-13T21:44:38.355Z,80.81
2018-06-13T21:47:09.866Z,81.50
2018-06-13T21:49:39.128Z,80.79
2018-06-13T21:52:08.400Z,79.83
2018-06-13T21:54:37.903Z,78.75
2018-06-13T21:57:07.814Z,80.59
2018-06-13T21:59:37.821Z,80.42
2018-06-13T22:02:08.043Z,80.79
2018-06-13T22:04:39.479Z,80.30
2018-06-13T22:07:09.112Z,81.64
2018-06-13T22:09:39.310Z,81.83
2018-06-13T22:12:08.503Z,80.71
2018-06-13T22:14:38.304Z,80.65
2018-06-13T22:17:13.599Z,80.62
2018-06-13T22:19:42.813Z,80.93
2018-06-13T22:22:12.667Z,79.41
2018-06-13T22:24:41.794Z,78.99
2018-06-13T22:27:12.248Z,79.62
2018-06-13T22:29:41.395Z,80.40
2018-06-13T22:32:14.204Z,80.39
2018-06-13T22:34:43.444Z,80.06
2018-06-13T22:37:12.732Z,79.32
2018-06-13T22:39:41.913Z,79.73
2018-06-13T22:42:11.090Z,79.71
2018-06-13T22:44:40.262Z,80.47
2018-06-13T22:47:16.142Z,80.97
2018-06-13T22:49:45.357Z,81.09
2018-06-13T22:52:14.540Z,80.91
2018-06-13T22:54:43.847Z,81.80
2018-06-13T22:57:13.060Z,82.41
2018-06-13T22:59:42.275Z,82.28
2018-06-13T23:02:11.439Z,82.04
2018-06-13T23:04:40.646Z,82.44
2018-06-13T23:07:09.845Z,83.10
2018-06-13T23:09:39.001Z,83.72
2018-06-13T23:12:15.719Z,84.00
2018-06-13T23:14:44.921Z,84.02
2018-06-13T23:17:14.105Z,84.03
2018-06-13T23:19:43.328Z,84.08
2018-06-13T23:22:12.572Z,84.48
2018-06-13T23:24:45.283Z,84.53
2018-06-13T23:27:16.284Z,83.68
2018-06-13T23:29:45.532Z,84.17
2018-06-13T23:32:15.086Z,83.96
2018-06-13T23:34:44.238Z,84.75
2018-06-13T23:37:15.545Z,84.15
2018-06-13T23:39:44.713Z,83.85
2018-06-13T23:42:13.914Z,84.28
2018-06-13T23:44:43.071Z,84.20
2018-06-13T23:47:16.835Z,84.54
2018-06-13T23:49:46.043Z,85.35
2018-06-13T23:52:15.310Z,85.42
2018-06-13T23:54:44.566Z,84.99
2018-06-13T23:57:13.840Z,84.62
2018-06-13T23:59:43.014Z,84.59
